Terminal Aerodrome Forecast
Issued by NWS Pittsburgh, PA

Current Version | Previous Version | Text Only | Print | Product List | Glossary Off
Versions: 1 2 3 4 5 6 7 8 9 10 11 12 13 14 15 16 17 18 19 20 21 22 23 24 25 26 27 28 29 30 31 32

000
FTUS41 KPBZ 311300 AAA
TAFPIT
TAF AMD
KPIT 311316Z 3113/0118 VRB04KT P6SM SCT100
     FM312100 26007KT P6SM SCT030 BKN250
     FM010900 21004KT 2SM -SN OVC020
     FM011100 20005KT 1SM -SN OVC008=

USA.gov is the U.S. government's official web portal to all federal, state and local government web resources and services.